Time;durP1;ratioP1;P1;durP2;ratioP2;P2;SDS_P1;SDS_P2;PMS_P1;PMS_P2;Temp;Humidity;BMP_temperature;BMP_pressure;BME280_temperature;BME280_humidity;BME280_pressure;Samples;Min_cycle;Max_cycle;Signal;HPM_P1;HPM_P2
2022/03/03 00:02:25;;;;;;;23.10;13.57;;;;;;;3.79;100.00;99952.13;5033123;28;20196;-83
2022/03/03 00:04:52;;;;;;;23.97;11.90;;;;;;;3.96;100.00;99981.88;5024603;28;20205;-80
2022/03/03 00:07:19;;;;;;;13.10;8.33;;;;;;;4.28;100.00;100029.28;5013329;28;20201;-83
2022/03/03 00:09:46;;;;;;;15.17;8.63;;;;;;;4.18;100.00;100023.75;5013058;28;20192;-80
2022/03/03 00:12:12;;;;;;;11.20;8.80;;;;;;;4.18;100.00;100016.94;5013447;28;20204;-84
2022/03/03 00:14:41;;;;;;;17.20;9.90;;;;;;;4.10;100.00;100023.47;5016833;28;20224;-84
2022/03/03 00:17:08;;;;;;;8.73;6.47;;;;;;;3.39;100.00;99894.94;5013553;28;20200;-81
2022/03/03 00:19:35;;;;;;;17.67;9.33;;;;;;;4.02;100.00;100021.41;5013072;28;20205;-80
2022/03/03 00:22:02;;;;;;;13.77;7.67;;;;;;;3.89;100.00;100010.66;5012774;28;20672;-81
2022/03/03 00:24:29;;;;;;;6.20;4.60;;;;;;;3.92;100.00;100017.63;5016870;28;20276;-83
2022/03/03 00:26:55;;;;;;;8.13;6.07;;;;;;;3.81;100.00;100013.75;5033018;28;20195;-80
2022/03/03 00:29:22;;;;;;;3.33;3.10;;;;;;;3.29;100.00;99919.34;5030313;28;20204;-81
2022/03/03 00:31:51;;;;;;;11.90;7.83;;;;;;;3.52;100.00;99957.84;5012887;28;20216;-84
2022/03/03 00:34:18;;;;;;;5.87;5.10;;;;;;;3.82;100.00;100011.22;5013338;28;20232;-83
2022/03/03 00:36:44;;;;;;;6.03;5.33;;;;;;;3.39;100.00;99936.81;5012881;28;20610;-81
2022/03/03 00:39:11;;;;;;;9.87;6.17;;;;;;;3.64;100.00;99983.97;5012756;28;20646;-82
2022/03/03 00:41:38;;;;;;;9.77;7.03;;;;;;;2.94;100.00;99876.91;5014523;28;20204;-80
2022/03/03 00:44:06;;;;;;;13.73;7.97;;;;;;;3.76;100.00;100004.97;5027409;28;20222;-78
2022/03/03 00:46:34;;;;;;;5.57;4.67;;;;;;;3.81;100.00;100001.81;5011212;28;20267;-78
2022/03/03 00:49:02;;;;;;;5.60;3.70;;;;;;;3.64;100.00;99978.84;5016226;28;20200;-80
2022/03/03 00:51:29;;;;;;;12.30;6.70;;;;;;;3.19;100.00;99937.72;5018887;28;20211;-80
2022/03/03 00:53:56;;;;;;;14.27;5.30;;;;;;;3.59;100.00;99980.34;5030515;28;20231;-78
2022/03/03 00:56:23;;;;;;;9.20;6.63;;;;;;;3.77;100.00;100005.06;5030901;28;20207;-79
2022/03/03 00:58:50;;;;;;;8.53;6.33;;;;;;;3.21;100.00;99932.66;5014546;28;20192;-80
2022/03/03 01:01:17;;;;;;;7.73;6.40;;;;;;;3.41;100.00;99972.78;5029792;28;20195;-79
2022/03/03 01:03:44;;;;;;;4.47;3.93;;;;;;;3.70;100.00;99999.59;5020289;28;20201;-79
2022/03/03 01:06:13;;;;;;;7.57;5.33;;;;;;;3.65;100.00;100003.66;5021881;28;20188;-80
2022/03/03 01:08:40;;;;;;;6.43;5.00;;;;;;;3.53;100.00;99977.53;5015122;28;20679;-80
2022/03/03 01:11:07;;;;;;;7.10;4.97;;;;;;;3.64;100.00;99999.38;5013525;28;20199;-81
2022/03/03 01:13:35;;;;;;;10.90;6.07;;;;;;;3.59;100.00;99970.97;5022931;28;20224;-81
2022/03/03 01:16:02;;;;;;;15.40;7.90;;;;;;;3.36;100.00;99962.34;5017026;28;20199;-81
2022/03/03 01:18:29;;;;;;;12.80;7.37;;;;;;;3.53;100.00;99974.97;5021007;28;20254;-81
2022/03/03 01:20:55;;;;;;;9.43;7.00;;;;;;;2.76;100.00;99888.06;5030062;28;20196;-82
2022/03/03 01:23:24;;;;;;;9.53;7.37;;;;;;;3.17;100.00;99939.34;5031280;28;20733;-81
2022/03/03 01:25:51;;;;;;;9.70;6.80;;;;;;;3.44;100.00;99986.59;5024285;28;20220;-81
2022/03/03 01:28:17;;;;;;;9.90;6.53;;;;;;;3.47;100.00;99989.28;5013908;28;20208;-80
2022/03/03 01:30:44;;;;;;;5.23;4.27;;;;;;;3.55;100.00;99978.47;5021958;28;20204;-82
2022/03/03 01:33:12;;;;;;;9.27;7.07;;;;;;;3.55;100.00;99973.34;5012801;28;20224;-80
2022/03/03 01:35:39;;;;;;;10.70;7.23;;;;;;;3.45;100.00;99972.97;5012456;28;20193;-79
2022/03/03 01:38:06;;;;;;;12.13;7.67;;;;;;;3.12;100.00;99919.44;5021221;28;20199;-82
2022/03/03 01:40:34;;;;;;;10.77;7.77;;;;;;;3.37;100.00;99966.66;5031910;28;20600;-80
2022/03/03 01:43:01;;;;;;;12.07;8.00;;;;;;;3.28;100.00;99966.25;5025617;28;20702;-81
2022/03/03 01:45:28;;;;;;;14.10;8.23;;;;;;;3.28;100.00;99968.81;5031503;28;20199;-81
2022/03/03 01:47:55;;;;;;;11.90;7.83;;;;;;;3.03;100.00;99937.91;5027539;28;20715;-82
2022/03/03 01:50:22;;;;;;;12.43;7.50;;;;;;;3.36;100.00;99977.72;5018872;28;20197;-80
2022/03/03 01:52:49;;;;;;;10.17;6.93;;;;;;;2.50;100.00;99854.53;5031684;28;20215;-80
2022/03/03 01:55:16;;;;;;;9.23;6.00;;;;;;;3.24;100.00;99972.09;5031673;28;20220;-81
2022/03/03 01:57:44;;;;;;;10.97;6.37;;;;;;;3.13;100.00;99936.59;5024538;28;20199;-81
2022/03/03 02:00:13;;;;;;;11.50;6.03;;;;;;;3.20;100.00;99947.16;5011775;28;20193;-81
2022/03/03 02:02:40;;;;;;;10.13;7.33;;;;;;;3.26;100.00;99965.34;5013965;28;20189;-78
2022/03/03 02:05:08;;;;;;;16.53;7.83;;;;;;;3.04;100.00;99931.06;5031368;28;20254;-80
2022/03/03 02:07:35;;;;;;;10.27;7.13;;;;;;;3.13;100.00;99964.75;5024729;28;20240;-80
2022/03/03 02:10:02;;;;;;;9.63;5.63;;;;;;;2.80;100.00;99916.41;5011737;28;20204;-82
2022/03/03 02:12:29;;;;;;;10.47;6.93;;;;;;;3.26;100.00;99964.44;5014665;28;20239;-78
2022/03/03 02:14:59;;;;;;;10.80;6.67;;;;;;;3.21;100.00;99960.84;5011888;28;20260;-83
2022/03/03 02:17:25;;;;;;;9.87;6.17;;;;;;;2.71;100.00;99899.81;5013480;28;20205;-80
2022/03/03 02:19:52;;;;;;;9.90;6.47;;;;;;;3.06;100.00;99957.63;5011895;28;20189;-81
2022/03/03 02:22:20;;;;;;;8.43;5.43;;;;;;;3.06;100.00;99945.69;5023749;28;20196;-80
2022/03/03 02:24:47;;;;;;;11.30;7.30;;;;;;;2.91;100.00;99945.03;5028793;28;20204;-79
2022/03/03 02:27:14;;;;;;;11.60;7.47;;;;;;;2.78;100.00;99915.47;5027904;28;20193;-82
2022/03/03 02:29:41;;;;;;;12.23;7.83;;;;;;;2.56;100.00;99866.75;5026940;28;20196;-81
2022/03/03 02:32:09;;;;;;;17.50;6.87;;;;;;;3.13;100.00;99952.81;5031288;28;20193;-80
2022/03/03 02:34:36;;;;;;;9.50;7.20;;;;;;;2.68;100.00;99889.41;5020404;28;20224;-82
2022/03/03 02:37:04;;;;;;;6.03;4.27;;;;;;;3.06;100.00;99943.13;5011590;28;20193;-81
2022/03/03 02:39:32;;;;;;;9.37;5.97;;;;;;;3.07;100.00;99944.88;5011693;28;20273;-79
2022/03/03 02:41:59;;;;;;;11.93;6.47;;;;;;;2.99;100.00;99933.44;5011819;28;20197;-81
2022/03/03 02:44:25;;;;;;;9.73;6.20;;;;;;;2.55;100.00;99859.00;5017598;28;20192;-80
2022/03/03 02:46:52;;;;;;;14.87;8.10;;;;;;;3.03;100.00;99935.34;5030991;28;20594;-80
2022/03/03 02:49:19;;;;;;;10.07;5.93;;;;;;;2.80;100.00;99930.91;5021589;28;20189;-81
2022/03/03 02:51:46;;;;;;;16.27;8.33;;;;;;;2.70;100.00;99903.16;5013606;28;20216;-82
2022/03/03 02:54:13;;;;;;;14.33;6.87;;;;;;;2.83;100.00;99931.03;5015662;28;20227;-82
2022/03/03 02:59:21;;;;;;;11.33;7.40;;;;;;;2.34;100.00;99887.09;5015112;28;20219;-81
2022/03/03 03:01:48;;;;;;;11.37;7.40;;;;;;;2.78;100.00;99930.81;5019191;28;20196;-82
2022/03/03 03:04:15;;;;;;;8.33;5.80;;;;;;;2.83;100.00;99926.78;5015801;28;20691;-82
2022/03/03 03:06:42;;;;;;;12.47;8.30;;;;;;;2.95;100.00;99929.88;5014814;28;20701;-81
2022/03/03 03:09:09;;;;;;;12.07;9.33;;;;;;;2.73;100.00;99928.88;5014680;28;20236;-80
2022/03/03 03:11:36;;;;;;;13.67;8.73;;;;;;;2.79;100.00;99936.81;5014630;28;20200;-80
2022/03/03 03:14:05;;;;;;;13.50;8.70;;;;;;;2.80;100.00;99915.53;5022049;28;20227;-80
2022/03/03 03:16:31;;;;;;;21.00;7.73;;;;;;;2.93;100.00;99934.03;5034353;28;20211;-79
2022/03/03 03:18:58;;;;;;;14.63;8.87;;;;;;;2.19;100.00;99831.00;5028856;28;20666;-82
2022/03/03 03:21:25;;;;;;;13.03;8.63;;;;;;;2.75;100.00;99899.09;5030120;28;20201;-79
2022/03/03 03:23:52;;;;;;;10.30;6.47;;;;;;;2.67;100.00;99885.13;5019959;28;20200;-80
2022/03/03 03:26:18;;;;;;;11.20;7.37;;;;;;;2.71;100.00;99907.47;5025227;28;20197;-80
2022/03/03 03:28:45;;;;;;;13.40;7.90;;;;;;;3.02;100.00;99932.69;5033754;28;20193;-82
2022/03/03 03:31:13;;;;;;;9.23;6.13;;;;;;;3.10;100.00;99936.47;5034284;28;20192;-81
2022/03/03 03:33:40;;;;;;;14.60;8.30;;;;;;;3.08;100.00;99933.81;5028404;28;20702;-79
2022/03/03 03:36:07;;;;;;;10.90;5.50;;;;;;;3.03;100.00;99914.84;5013975;28;20686;-81
2022/03/03 03:38:34;;;;;;;17.03;7.20;;;;;;;3.04;100.00;99914.00;5013795;28;20222;-80
2022/03/03 03:41:01;;;;;;;10.77;6.33;;;;;;;3.08;100.00;99920.13;5014325;28;20204;-79
2022/03/03 03:43:28;;;;;;;17.20;9.53;;;;;;;2.58;100.00;99856.56;5019224;28;20570;-81
2022/03/03 03:45:55;;;;;;;17.03;9.37;;;;;;;2.99;100.00;99912.97;5013999;28;20228;-80
2022/03/03 03:48:23;;;;;;;9.00;6.23;;;;;;;2.81;100.00;99871.22;5023541;28;20608;-82
2022/03/03 03:50:50;;;;;;;14.67;8.50;;;;;;;3.00;100.00;99919.81;5030784;28;20204;-81
2022/03/03 03:53:17;;;;;;;12.73;8.40;;;;;;;2.96;100.00;99913.69;5023373;28;20193;-81
2022/03/03 03:55:44;;;;;;;7.77;5.80;;;;;;;2.75;100.00;99855.59;5030994;28;20235;-79
2022/03/03 03:58:11;;;;;;;11.83;7.47;;;;;;;2.77;100.00;99894.94;5033342;28;20188;-82
2022/03/03 04:00:38;;;;;;;14.23;8.53;;;;;;;2.66;100.00;99868.00;5033681;28;20188;-81
2022/03/03 04:03:05;;;;;;;11.17;8.27;;;;;;;3.00;100.00;99917.25;5017365;28;20193;-80
2022/03/03 04:05:33;;;;;;;15.10;8.67;;;;;;;2.48;100.00;99827.16;5032086;28;20232;-81
2022/03/03 04:08:00;;;;;;;22.53;10.73;;;;;;;2.92;100.00;99919.50;5017007;28;20695;-82
2022/03/03 04:10:28;;;;;;;10.50;5.60;;;;;;;2.91;100.00;99920.31;5013392;28;20203;-80
2022/03/03 04:12:55;;;;;;;18.47;9.73;;;;;;;2.97;100.00;99924.81;5013328;28;20585;-79
2022/03/03 04:15:22;;;;;;;14.57;8.30;;;;;;;2.67;100.00;99880.88;5030508;28;20220;-79
2022/03/03 04:17:49;;;;;;;13.70;9.10;;;;;;;2.08;100.00;99798.97;5033157;28;20200;-81
2022/03/03 04:20:18;;;;;;;13.60;8.83;;;;;;;2.41;100.00;99850.72;5017994;28;20192;-81
2022/03/03 04:22:46;;;;;;;14.20;8.97;;;;;;;2.92;100.00;99918.63;5032812;28;20766;-82
2022/03/03 04:25:13;;;;;;;13.87;9.30;;;;;;;2.46;100.00;99868.00;5017303;28;20205;-78
2022/03/03 04:27:40;;;;;;;13.27;9.13;;;;;;;2.64;100.00;99897.78;5031012;28;20192;-79
2022/03/03 04:30:10;;;;;;;10.97;7.53;;;;;;;2.78;100.00;99918.03;5032356;28;20601;-79
2022/03/03 04:32:37;;;;;;;11.13;7.53;;;;;;;2.71;100.00;99921.13;5020104;28;20657;-82
2022/03/03 04:35:04;;;;;;;17.03;9.90;;;;;;;2.47;100.00;99899.59;5026691;28;20343;-81
2022/03/03 04:37:31;;;;;;;12.30;7.67;;;;;;;2.10;100.00;99825.50;5033015;28;20193;-82
2022/03/03 04:39:59;;;;;;;21.50;8.20;;;;;;;2.66;100.00;99919.19;5032173;28;20199;-81
2022/03/03 04:42:26;;;;;;;20.33;8.87;;;;;;;2.60;100.00;99912.13;5032643;28;20192;-82
2022/03/03 04:44:53;;;;;;;28.73;13.90;;;;;;;2.38;100.00;99894.97;5027958;28;20193;-81
2022/03/03 04:47:19;;;;;;;16.40;6.07;;;;;;;2.51;100.00;99883.56;5030483;28;20289;-82
2022/03/03 04:49:46;;;;;;;17.30;8.40;;;;;;;2.65;100.00;99884.16;5015667;28;20192;-78
2022/03/03 04:52:13;;;;;;;15.17;7.63;;;;;;;2.73;100.00;99903.28;5013110;28;20215;-79
2022/03/03 04:54:40;;;;;;;21.90;10.97;;;;;;;1.78;100.00;99757.63;5013578;28;20213;-81
2022/03/03 04:57:08;;;;;;;26.40;13.23;;;;;;;2.77;100.00;99905.19;5012537;28;20687;-77
2022/03/03 04:59:35;;;;;;;33.37;14.23;;;;;;;2.80;100.00;99906.19;5012453;28;20667;-76
2022/03/03 05:02:02;;;;;;;32.50;15.93;;;;;;;2.71;100.00;99869.09;5013408;28;20236;-79
2022/03/03 05:04:28;;;;;;;21.97;12.23;;;;;;;2.81;100.00;99900.25;5016530;28;20201;-79
2022/03/03 05:06:55;;;;;;;19.10;11.23;;;;;;;2.56;100.00;99868.44;5014069;28;20197;-78
2022/03/03 05:09:22;;;;;;;21.17;11.17;;;;;;;2.46;100.00;99865.47;5031998;28;20204;-78
2022/03/03 05:11:49;;;;;;;14.07;8.00;;;;;;;2.71;100.00;99899.81;5031858;28;20227;-77
2022/03/03 05:14:17;;;;;;;16.10;9.17;;;;;;;2.48;100.00;99851.06;5024984;28;20196;-77
2022/03/03 05:16:44;;;;;;;18.30;10.20;;;;;;;2.70;100.00;99903.16;5019721;28;20196;-81
2022/03/03 05:19:11;;;;;;;10.60;6.80;;;;;;;2.80;100.00;99902.75;5029750;28;20192;-81
2022/03/03 05:21:38;;;;;;;15.13;8.23;;;;;;;2.18;100.00;99797.69;5014543;28;20224;-79
2022/03/03 05:24:06;;;;;;;12.57;8.17;;;;;;;2.79;100.00;99895.84;5016554;28;20655;-78
2022/03/03 05:26:33;;;;;;;13.10;9.23;;;;;;;2.71;100.00;99900.66;5027221;28;20200;-80
2022/03/03 05:29:00;;;;;;;5.33;3.93;;;;;;;2.76;100.00;99900.84;5013533;28;20196;-80
2022/03/03 05:31:28;;;;;;;16.23;9.33;;;;;;;2.79;100.00;99895.84;5024013;28;20200;-80
2022/03/03 05:33:55;;;;;;;16.60;9.63;;;;;;;2.80;100.00;99895.06;5020271;28;20196;-79
2022/03/03 05:36:25;;;;;;;13.70;8.67;;;;;;;2.84;100.00;99904.63;5022431;28;20727;-79
2022/03/03 05:38:53;;;;;;;5.20;3.60;;;;;;;2.77;100.00;99882.13;5012248;28;20223;-80
2022/03/03 05:41:20;;;;;;;11.23;6.93;;;;;;;2.64;100.00;99849.16;5012309;28;20193;-79
2022/03/03 05:43:47;;;;;;;11.27;7.07;;;;;;;2.91;100.00;99889.59;5017375;28;20196;-80
2022/03/03 05:46:16;;;;;;;15.60;9.13;;;;;;;2.76;100.00;99855.66;5018249;28;20215;-81
2022/03/03 05:48:45;;;;;;;16.90;9.17;;;;;;;2.84;100.00;99840.63;5024071;28;20208;-81
2022/03/03 05:51:11;;;;;;;17.97;9.40;;;;;;;2.98;100.00;99895.84;5024715;28;20667;-79
2022/03/03 05:53:38;;;;;;;13.87;8.40;;;;;;;3.15;100.00;99884.59;5026505;28;20193;-80
2022/03/03 05:56:09;;;;;;;13.23;7.83;;;;;;;3.30;100.00;99890.34;5028909;28;20224;-81
2022/03/03 05:58:41;;;;;;;12.60;7.03;;;;;;;3.06;100.00;99833.03;5032449;28;20210;-81
2022/03/03 06:01:10;;;;;;;17.47;9.20;;;;;;;3.39;100.00;99890.72;5026347;28;20220;-79
2022/03/03 06:03:38;;;;;;;8.83;6.23;;;;;;;3.44;100.00;99896.91;5018636;28;20193;-78
2022/03/03 06:06:14;;;;;;;14.03;7.30;;;;;;;3.46;100.00;99895.25;5023624;28;20581;-80
2022/03/03 06:08:42;;;;;;;13.87;7.90;;;;;;;3.79;100.00;99884.59;5026930;28;20210;-77
2022/03/03 06:11:14;;;;;;;19.00;9.60;;;;;;;3.44;100.00;99858.47;5031338;28;20196;-77
2022/03/03 06:13:47;;;;;;;15.87;7.90;;;;;;;3.64;100.00;99891.69;5027480;28;20193;-79
2022/03/03 06:16:18;;;;;;;13.10;7.90;;;;;;;3.64;100.00;99907.94;5023586;28;20224;-77
2022/03/03 06:18:46;;;;;;;9.13;5.83;;;;;;;3.68;100.00;99883.28;5030612;28;20690;-80
2022/03/03 06:21:14;;;;;;;20.47;8.77;;;;;;;3.82;100.00;99912.91;5030602;28;20691;-78
2022/03/03 06:23:41;;;;;;;12.33;7.30;;;;;;;3.53;100.00;99841.72;5028723;28;21952;-79
2022/03/03 06:26:11;;;;;;;10.67;7.80;;;;;;;4.03;100.00;99902.63;5011685;28;20201;-80
2022/03/03 06:28:38;;;;;;;16.97;9.57;;;;;;;4.06;100.00;99907.84;5015511;28;20690;-78
2022/03/03 06:31:06;;;;;;;13.83;9.00;;;;;;;4.14;100.00;99902.19;5015411;28;20196;-78
2022/03/03 06:33:33;;;;;;;17.77;8.23;;;;;;;3.68;100.00;99840.59;5021188;28;20264;-77
2022/03/03 06:36:00;;;;;;;10.93;6.47;;;;;;;4.18;100.00;99909.19;5020329;28;20232;-77
2022/03/03 06:38:28;;;;;;;10.30;6.53;;;;;;;4.08;100.00;99875.44;5014726;28;20778;-78
2022/03/03 06:40:57;;;;;;;10.13;7.03;;;;;;;4.25;100.00;99906.03;5015304;28;20197;-78
2022/03/03 06:43:24;;;;;;;22.17;12.13;;;;;;;4.27;100.00;99912.09;5018271;28;20243;-77
2022/03/03 06:45:52;;;;;;;17.17;9.23;;;;;;;4.16;100.00;99868.91;5023870;28;20227;-78
2022/03/03 06:48:19;;;;;;;20.73;9.90;;;;;;;4.14;100.00;99865.41;5016681;28;22272;-77
2022/03/03 06:50:50;;;;;;;11.50;6.77;;;;;;;4.37;100.00;99911.63;5032335;28;20261;-78
2022/03/03 06:53:20;;;;;;;12.97;6.27;;;;;;;4.30;100.00;99853.19;5034193;28;20226;-78
2022/03/03 06:55:51;;;;;;;13.33;6.73;;;;;;;4.38;100.00;99867.19;5031597;28;20239;-76
2022/03/03 06:58:19;;;;;;;11.60;6.77;;;;;;;4.28;100.00;99867.63;5032020;28;20208;-80
2022/03/03 07:00:52;;;;;;;10.83;7.00;;;;;;;4.96;100.00;99924.00;5031220;28;20204;-79
2022/03/03 07:03:20;;;;;;;11.17;7.23;;;;;;;4.92;100.00;99929.84;5028986;28;20220;-81
2022/03/03 07:05:47;;;;;;;17.43;5.47;;;;;;;4.83;100.00;99918.38;5032624;28;20200;-80
2022/03/03 07:08:15;;;;;;;16.30;7.20;;;;;;;4.50;100.00;99871.84;5032986;28;20602;-82
2022/03/03 07:10:42;;;;;;;8.57;5.07;;;;;;;3.85;100.00;99760.03;5031200;28;20200;-79
2022/03/03 07:13:11;;;;;;;9.70;5.83;;;;;;;4.84;100.00;99920.16;5033509;28;20200;-80
2022/03/03 07:15:47;;;;;;;8.90;5.97;;;;;;;4.72;100.00;99910.31;5030096;28;20706;-78
2022/03/03 07:18:18;;;;;;;13.43;8.23;;;;;;;4.90;100.00;99931.50;5033919;28;20196;-79
2022/03/03 07:20:52;;;;;;;12.10;6.47;;;;;;;5.10;100.00;99926.19;5029721;28;20208;-79
2022/03/03 07:23:32;;;;;;;13.97;7.60;;;;;;;5.07;100.00;99908.94;5031460;28;20203;-77
2022/03/03 07:26:01;;;;;;;15.03;8.90;;;;;;;5.21;100.00;99928.28;5033342;28;20196;-79
2022/03/03 07:28:30;;;;;;;16.20;8.27;;;;;;;5.29;100.00;99925.97;5034104;28;20223;-78
2022/03/03 07:31:00;;;;;;;12.43;7.57;;;;;;;5.36;100.00;99928.78;5018618;28;20193;-77
2022/03/03 07:33:39;;;;;;;16.17;9.60;;;;;;;5.58;100.00;99944.91;5012341;28;20259;-75
2022/03/03 07:36:09;;;;;;;16.63;8.80;;;;;;;5.57;100.00;99925.16;5025626;28;20215;-76
2022/03/03 07:38:39;;;;;;;12.90;6.97;;;;;;;5.62;100.00;99926.19;5026847;28;20235;-76
2022/03/03 07:41:07;;;;;;;13.93;8.70;;;;;;;5.42;100.00;99895.56;5025583;28;20196;-75
2022/03/03 07:43:35;;;;;;;17.30;8.77;;;;;;;5.49;100.00;99882.06;5013478;28;20692;-77
2022/03/03 07:46:04;;;;;;;9.50;6.33;;;;;;;5.62;100.00;99914.22;5013559;28;20216;-73
2022/03/03 07:48:32;;;;;;;26.40;6.47;;;;;;;6.10;100.00;99926.88;5028971;28;20311;-77
2022/03/03 07:51:01;;;;;;;8.60;5.97;;;;;;;5.99;100.00;99945.41;5033404;28;20276;-74
2022/03/03 07:53:28;;;;;;;10.10;6.87;;;;;;;5.79;100.00;99920.75;5032621;28;20250;-73
2022/03/03 07:56:04;;;;;;;11.80;6.83;;;;;;;6.02;100.00;99939.53;5032611;28;20224;-76
2022/03/03 07:58:39;;;;;;;17.77;8.90;;;;;;;6.30;100.00;99941.22;5030559;28;20204;-80
2022/03/03 08:01:06;;;;;;;22.03;10.60;;;;;;;6.04;100.00;99903.50;5032120;28;20249;-77
2022/03/03 08:03:35;;;;;;;23.33;10.40;;;;;;;6.40;100.00;99944.09;5030963;28;20203;-76
2022/03/03 08:06:02;;;;;;;11.83;6.50;;;;;;;6.57;100.00;99933.41;5031944;28;20701;-74
2022/03/03 08:08:31;;;;;;;15.43;8.97;;;;;;;6.60;100.00;99941.25;5032308;28;20636;-78
2022/03/03 08:11:06;;;;;;;14.83;8.03;;;;;;;5.97;100.00;99880.19;5031836;28;20204;-80
2022/03/03 08:13:33;;;;;;;12.43;7.77;;;;;;;6.22;100.00;99938.41;5032332;28;20200;-78
2022/03/03 08:16:01;;;;;;;17.67;10.23;;;;;;;6.36;100.00;99942.25;5018466;28;20231;-75
2022/03/03 08:18:30;;;;;;;19.40;10.97;;;;;;;6.26;100.00;99942.81;5024596;28;20203;-78
2022/03/03 08:20:57;;;;;;;18.87;9.87;;;;;;;6.35;100.00;99935.34;5028268;28;20211;-75
2022/03/03 08:23:26;;;;;;;21.80;12.10;;;;;;;6.54;100.00;99930.75;5032413;28;20629;-78
2022/03/03 08:25:54;;;;;;;13.37;7.90;;;;;;;6.67;100.00;99925.13;5033054;28;20631;-77
2022/03/03 08:28:23;;;;;;;17.77;8.27;;;;;;;6.46;100.00;99902.19;5022826;28;20193;-77
2022/03/03 08:30:52;;;;;;;21.23;11.23;;;;;;;6.78;100.00;99931.41;5020215;28;20200;-77
2022/03/03 08:33:24;;;;;;;17.17;8.90;;;;;;;6.83;99.54;99896.34;5032038;28;20219;-79
2022/03/03 08:35:56;;;;;;;17.57;9.27;;;;;;;6.97;100.00;99929.41;5012988;28;20232;-77
2022/03/03 08:38:33;;;;;;;15.23;8.80;;;;;;;6.96;99.97;99919.03;5012984;28;20593;-77
2022/03/03 08:41:01;;;;;;;16.40;11.10;;;;;;;6.88;99.86;99882.75;5012269;28;20200;-74
2022/03/03 08:43:29;;;;;;;15.67;9.80;;;;;;;7.18;98.16;99934.25;5013297;28;20208;-79
2022/03/03 08:45:57;;;;;;;13.57;9.37;;;;;;;7.11;94.17;99932.34;5032431;28;20223;-75
2022/03/03 08:48:30;;;;;;;16.13;9.10;;;;;;;7.32;95.68;99932.88;5032430;28;20718;-78
2022/03/03 08:50:58;;;;;;;19.07;9.17;;;;;;;7.19;94.81;99863.81;5031877;28;20255;-75
2022/03/03 08:53:25;;;;;;;13.50;8.13;;;;;;;7.53;91.44;99905.91;5030840;28;20212;-76
2022/03/03 08:55:53;;;;;;;11.83;8.03;;;;;;;7.56;91.78;99924.91;5030990;28;20223;-78
2022/03/03 08:58:20;;;;;;;9.87;7.30;;;;;;;7.68;92.04;99926.88;5030997;28;20262;-77
2022/03/03 09:00:48;;;;;;;14.63;9.37;;;;;;;7.66;93.88;99926.00;5031102;28;20192;-75
2022/03/03 09:03:18;;;;;;;14.47;9.00;;;;;;;7.57;94.02;99912.84;5029319;28;20208;-73
2022/03/03 09:05:46;;;;;;;14.07;7.07;;;;;;;7.52;97.45;99919.63;5031379;28;20220;-74
2022/03/03 09:08:13;;;;;;;12.30;7.47;;;;;;;7.52;95.16;99906.72;5030717;28;20200;-74
2022/03/03 09:10:41;;;;;;;14.73;7.90;;;;;;;7.67;94.98;99926.00;5031025;28;20232;-76
2022/03/03 09:13:08;;;;;;;13.50;7.73;;;;;;;7.67;95.30;99933.75;5029734;28;20188;-75
2022/03/03 09:15:35;;;;;;;23.67;10.10;;;;;;;7.83;95.49;99932.41;5029372;28;20208;-74
2022/03/03 09:18:02;;;;;;;16.70;9.90;;;;;;;7.88;93.69;99930.81;5030002;28;20587;-74
2022/03/03 09:20:29;;;;;;;16.77;9.17;;;;;;;8.01;92.48;99937.13;5030529;28;20212;-75
2022/03/03 09:22:57;;;;;;;23.07;10.47;;;;;;;8.09;89.10;99931.31;5029455;28;20200;-75
2022/03/03 09:25:24;;;;;;;26.43;11.10;;;;;;;7.62;89.21;99859.66;5030204;28;20254;-75
2022/03/03 09:27:51;;;;;;;17.67;9.70;;;;;;;8.04;88.85;99926.88;5015297;28;20199;-74
2022/03/03 09:30:18;;;;;;;26.20;10.87;;;;;;;8.07;88.36;99927.81;5010321;28;20286;-75
2022/03/03 09:32:45;;;;;;;23.87;8.77;;;;;;;8.17;90.14;99927.16;5024726;28;20199;-77
2022/03/03 09:35:12;;;;;;;22.57;12.07;;;;;;;8.08;91.25;99918.34;5030544;28;20199;-75
2022/03/03 09:37:39;;;;;;;16.10;9.27;;;;;;;8.11;91.68;99924.47;5011772;28;20232;-76
2022/03/03 09:40:09;;;;;;;22.07;9.70;;;;;;;7.87;87.49;99885.19;5023387;28;20196;-75
2022/03/03 09:42:36;;;;;;;17.67;8.53;;;;;;;7.97;78.15;99921.56;5018965;28;20280;-76
2022/03/03 09:45:04;;;;;;;17.37;6.83;;;;;;;8.06;75.58;99935.53;5024128;28;20208;-78
2022/03/03 09:47:31;;;;;;;17.70;10.27;;;;;;;8.07;74.37;99891.66;5031503;28;20232;-78
2022/03/03 09:49:58;;;;;;;21.57;8.63;;;;;;;8.28;73.44;99923.13;5021252;28;20201;-78
2022/03/03 09:52:25;;;;;;;26.17;11.53;;;;;;;8.48;74.72;99925.28;5012139;28;20234;-80
2022/03/03 09:54:55;;;;;;;14.10;7.10;;;;;;;8.57;73.24;99928.91;5012215;28;20199;-77
2022/03/03 09:57:24;;;;;;;16.17;8.93;;;;;;;8.29;73.52;99846.53;5011537;28;20232;-79
2022/03/03 09:59:53;;;;;;;21.57;10.43;;;;;;;8.85;73.38;99901.88;5011633;28;20208;-77
2022/03/03 10:02:20;;;;;;;12.40;6.80;;;;;;;8.38;71.01;99845.00;5017019;28;20227;-82
2022/03/03 10:04:47;;;;;;;22.23;9.23;;;;;;;8.54;72.35;99833.25;5015497;28;20200;-81
2022/03/03 10:07:14;;;;;;;11.00;6.80;;;;;;;8.83;71.59;99862.22;5015570;28;20584;-78
2022/03/03 10:12:23;;;;;;;19.03;9.43;;;;;;;9.49;69.23;99910.81;5014371;28;20201;-81
2022/03/03 10:14:51;;;;;;;15.33;8.50;;;;;;;9.58;66.04;99909.22;5014590;28;20201;-79
2022/03/03 10:17:18;;;;;;;16.53;7.47;;;;;;;9.63;66.10;99904.13;5016072;28;20228;-79
2022/03/03 10:19:53;;;;;;;9.27;5.33;;;;;;;9.29;65.00;99833.72;5015640;28;20668;-79
2022/03/03 10:22:25;;;;;;;19.77;9.63;;;;;;;10.40;65.58;99906.16;5015250;28;20196;-81
2022/03/03 10:24:51;;;;;;;18.73;8.53;;;;;;;10.58;64.04;99902.91;5015611;28;20212;-80
2022/03/03 10:27:20;;;;;;;12.20;7.88;;;;;;;10.72;63.07;99903.94;5015225;28;20208;-81
2022/03/03 10:29:49;;;;;;;11.30;7.28;;;;;;;10.94;61.34;99910.25;5015560;28;20193;-78
2022/03/03 10:32:23;;;;;;;11.38;7.65;;;;;;;10.76;65.19;99852.97;5015273;28;20197;-76
2022/03/03 10:34:53;;;;;;;12.63;7.90;;;;;;;10.63;59.26;99890.00;5014880;28;20201;-81
2022/03/03 10:37:23;;;;;;;27.45;13.18;;;;;;;10.76;58.52;99890.16;5015156;28;20307;-81
2022/03/03 10:39:57;;;;;;;20.38;9.30;;;;;;;10.49;58.68;99904.53;5015338;28;20196;-79
2022/03/03 10:42:25;;;;;;;11.60;7.70;;;;;;;9.79;61.26;99904.38;5015506;28;20667;-82
2022/03/03 10:45:08;;;;;;;14.60;8.40;;;;;;;9.69;62.43;99867.97;5015425;28;20655;-81
2022/03/03 10:47:35;;;;;;;19.00;9.10;;;;;;;10.12;62.13;99903.13;5015260;28;20255;-80
2022/03/03 10:50:02;;;;;;;16.90;8.30;;;;;;;10.29;60.32;99892.19;5014731;28;20698;-80
2022/03/03 10:52:32;;;;;;;21.57;9.47;;;;;;;10.33;60.26;99904.34;5014855;28;20201;-81
2022/03/03 10:55:02;;;;;;;12.07;8.07;;;;;;;10.06;60.10;99898.72;5015217;28;20251;-80
2022/03/03 10:57:39;;;;;;;11.90;7.70;;;;;;;9.46;62.25;99857.28;5015238;28;20225;-79
2022/03/03 11:00:11;;;;;;;14.60;9.07;;;;;;;9.18;63.56;99850.78;5015094;28;20270;-80
2022/03/03 11:02:40;;;;;;;19.23;10.40;;;;;;;9.80;62.16;99889.72;5014923;28;20193;-80
2022/03/03 11:05:10;;;;;;;21.67;10.60;;;;;;;10.02;60.30;99872.78;5013700;28;20201;-81
2022/03/03 11:07:39;;;;;;;25.43;13.00;;;;;;;10.09;58.78;99862.53;5014575;28;20205;-80
2022/03/03 11:10:08;;;;;;;17.50;9.67;;;;;;;9.95;57.87;99888.22;5014355;28;20672;-81
2022/03/03 11:12:35;;;;;;;19.47;8.83;;;;;;;10.03;57.52;99887.44;5014355;28;20200;-81
2022/03/03 11:15:03;;;;;;;13.67;8.80;;;;;;;10.05;58.28;99891.81;5014584;28;20197;-81
2022/03/03 11:17:32;;;;;;;14.80;8.70;;;;;;;9.62;59.78;99856.66;5014643;28;20235;-80
2022/03/03 11:19:59;;;;;;;18.20;10.47;;;;;;;9.87;61.47;99899.31;5014178;28;20201;-85
2022/03/03 11:22:31;;;;;;;15.20;8.50;;;;;;;9.76;60.26;99891.41;5014468;28;20205;-81
2022/03/03 11:24:59;;;;;;;15.27;9.40;;;;;;;9.50;61.78;99868.53;5026358;28;20189;-78
2022/03/03 11:27:34;;;;;;;14.00;9.47;;;;;;;9.95;62.27;99854.53;5011402;28;20204;-79
2022/03/03 11:30:19;;;;;;;16.20;10.00;;;;;;;10.47;62.50;99875.13;5015859;28;20199;-78
2022/03/03 11:33:08;;;;;;;17.45;10.25;;;;;;;10.90;62.84;99885.13;5018073;28;20197;-76
2022/03/03 11:35:48;;;;;;;15.65;9.23;;;;;;;10.57;63.26;99888.19;5015024;28;20193;-81
2022/03/03 11:38:15;;;;;;;17.63;7.22;;;;;;;10.57;59.54;99885.59;5017216;28;20259;-83